sensor_id;sensor_type;location;lat;lon;timestamp;P1;durP1;ratioP1;P2;durP2;ratioP2
20179;SDS011;10249;48.900;9.090;2023-04-01T00:00:32;7.30;;;7.10;;
20179;SDS011;10249;48.900;9.090;2023-04-01T00:02:59;7.20;;;7.00;;
20179;SDS011;10249;48.900;9.090;2023-04-01T00:05:28;7.17;;;6.97;;
20179;SDS011;10249;48.900;9.090;2023-04-01T00:07:55;8.27;;;7.30;;
20179;SDS011;10249;48.900;9.090;2023-04-01T00:10:22;7.10;;;6.70;;
20179;SDS011;10249;48.900;9.090;2023-04-01T00:12:49;7.13;;;6.83;;
20179;SDS011;10249;48.900;9.090;2023-04-01T00:15:16;7.40;;;7.20;;
20179;SDS011;10249;48.900;9.090;2023-04-01T00:17:43;7.67;;;7.30;;
20179;SDS011;10249;48.900;9.090;2023-04-01T00:20:11;7.37;;;7.10;;
20179;SDS011;10249;48.900;9.090;2023-04-01T00:22:40;7.27;;;7.07;;
20179;SDS011;10249;48.900;9.090;2023-04-01T00:25:08;7.80;;;7.50;;
20179;SDS011;10249;48.900;9.090;2023-04-01T00:27:35;7.10;;;6.90;;
20179;SDS011;10249;48.900;9.090;2023-04-01T00:30:02;7.60;;;7.30;;
20179;SDS011;10249;48.900;9.090;2023-04-01T00:32:30;7.60;;;7.30;;
20179;SDS011;10249;48.900;9.090;2023-04-01T00:34:57;7.10;;;6.90;;
20179;SDS011;10249;48.900;9.090;2023-04-01T00:37:25;7.20;;;7.00;;
20179;SDS011;10249;48.900;9.090;2023-04-01T00:39:53;7.37;;;7.17;;
20179;SDS011;10249;48.900;9.090;2023-04-01T00:42:20;7.10;;;6.90;;
20179;SDS011;10249;48.900;9.090;2023-04-01T00:44:50;7.30;;;7.10;;
20179;SDS011;10249;48.900;9.090;2023-04-01T00:47:17;7.30;;;7.10;;
20179;SDS011;10249;48.900;9.090;2023-04-01T00:49:45;7.20;;;7.00;;
20179;SDS011;10249;48.900;9.090;2023-04-01T00:52:14;7.40;;;7.20;;
20179;SDS011;10249;48.900;9.090;2023-04-01T00:54:42;7.20;;;7.00;;
20179;SDS011;10249;48.900;9.090;2023-04-01T00:57:14;8.20;;;7.80;;
20179;SDS011;10249;48.900;9.090;2023-04-01T00:59:43;7.60;;;7.30;;
20179;SDS011;10249;48.900;9.090;2023-04-01T01:02:11;7.30;;;7.10;;
20179;SDS011;10249;48.900;9.090;2023-04-01T01:04:38;7.67;;;7.37;;
20179;SDS011;10249;48.900;9.090;2023-04-01T01:07:09;7.60;;;7.40;;
20179;SDS011;10249;48.900;9.090;2023-04-01T01:09:39;8.00;;;7.70;;
20179;SDS011;10249;48.900;9.090;2023-04-01T01:12:08;8.20;;;7.90;;
20179;SDS011;10249;48.900;9.090;2023-04-01T01:14:46;8.50;;;8.10;;
20179;SDS011;10249;48.900;9.090;2023-04-01T01:17:19;8.70;;;8.40;;
20179;SDS011;10249;48.900;9.090;2023-04-01T01:19:51;8.73;;;8.40;;
20179;SDS011;10249;48.900;9.090;2023-04-01T01:22:31;9.40;;;8.90;;
20179;SDS011;10249;48.900;9.090;2023-04-01T01:25:07;8.47;;;8.17;;
20179;SDS011;10249;48.900;9.090;2023-04-01T01:27:36;8.20;;;7.90;;
20179;SDS011;10249;48.900;9.090;2023-04-01T01:30:25;8.27;;;7.97;;
20179;SDS011;10249;48.900;9.090;2023-04-01T01:33:12;8.23;;;7.93;;
20179;SDS011;10249;48.900;9.090;2023-04-01T01:35:46;8.40;;;8.10;;
20179;SDS011;10249;48.900;9.090;2023-04-01T01:38:15;8.80;;;8.30;;
20179;SDS011;10249;48.900;9.090;2023-04-01T01:40:44;8.67;;;8.37;;
20179;SDS011;10249;48.900;9.090;2023-04-01T01:43:13;8.30;;;8.00;;
20179;SDS011;10249;48.900;9.090;2023-04-01T01:45:43;8.00;;;7.70;;
20179;SDS011;10249;48.900;9.090;2023-04-01T01:48:12;7.70;;;7.50;;
20179;SDS011;10249;48.900;9.090;2023-04-01T01:50:40;8.00;;;7.70;;
20179;SDS011;10249;48.900;9.090;2023-04-01T01:53:10;7.77;;;7.57;;
20179;SDS011;10249;48.900;9.090;2023-04-01T01:55:38;7.20;;;7.00;;
20179;SDS011;10249;48.900;9.090;2023-04-01T01:58:07;7.53;;;7.20;;
20179;SDS011;10249;48.900;9.090;2023-04-01T02:00:37;7.00;;;6.80;;
20179;SDS011;10249;48.900;9.090;2023-04-01T02:03:05;6.80;;;6.60;;
20179;SDS011;10249;48.900;9.090;2023-04-01T02:05:33;6.80;;;6.60;;
20179;SDS011;10249;48.900;9.090;2023-04-01T02:08:01;6.60;;;6.40;;
20179;SDS011;10249;48.900;9.090;2023-04-01T02:10:30;6.70;;;6.40;;
20179;SDS011;10249;48.900;9.090;2023-04-01T02:12:59;6.67;;;6.47;;
20179;SDS011;10249;48.900;9.090;2023-04-01T02:15:27;6.50;;;6.30;;
20179;SDS011;10249;48.900;9.090;2023-04-01T02:17:55;6.90;;;6.50;;
20179;SDS011;10249;48.900;9.090;2023-04-01T02:20:23;6.60;;;6.40;;
20179;SDS011;10249;48.900;9.090;2023-04-01T02:22:51;6.30;;;6.10;;
20179;SDS011;10249;48.900;9.090;2023-04-01T02:25:20;6.40;;;6.10;;
20179;SDS011;10249;48.900;9.090;2023-04-01T02:27:50;6.33;;;6.13;;
20179;SDS011;10249;48.900;9.090;2023-04-01T02:30:18;6.67;;;6.47;;
20179;SDS011;10249;48.900;9.090;2023-04-01T02:32:45;6.80;;;6.60;;
20179;SDS011;10249;48.900;9.090;2023-04-01T02:35:14;7.30;;;7.10;;
20179;SDS011;10249;48.900;9.090;2023-04-01T02:37:44;7.80;;;7.50;;
20179;SDS011;10249;48.900;9.090;2023-04-01T02:40:14;7.50;;;7.30;;
20179;SDS011;10249;48.900;9.090;2023-04-01T02:42:41;7.50;;;7.30;;
20179;SDS011;10249;48.900;9.090;2023-04-01T02:45:10;7.20;;;7.00;;
20179;SDS011;10249;48.900;9.090;2023-04-01T02:47:38;7.20;;;7.00;;
20179;SDS011;10249;48.900;9.090;2023-04-01T02:50:06;7.10;;;6.90;;
20179;SDS011;10249;48.900;9.090;2023-04-01T02:52:33;6.97;;;6.77;;
20179;SDS011;10249;48.900;9.090;2023-04-01T02:55:01;7.10;;;6.90;;
20179;SDS011;10249;48.900;9.090;2023-04-01T02:57:28;7.20;;;7.00;;
20179;SDS011;10249;48.900;9.090;2023-04-01T02:59:55;6.90;;;6.70;;
20179;SDS011;10249;48.900;9.090;2023-04-01T03:02:23;7.17;;;6.97;;
20179;SDS011;10249;48.900;9.090;2023-04-01T03:04:50;6.80;;;6.60;;
20179;SDS011;10249;48.900;9.090;2023-04-01T03:07:18;7.00;;;6.80;;
20179;SDS011;10249;48.900;9.090;2023-04-01T03:09:45;6.90;;;6.70;;
20179;SDS011;10249;48.900;9.090;2023-04-01T03:12:12;7.03;;;6.83;;
20179;SDS011;10249;48.900;9.090;2023-04-01T03:14:39;7.17;;;6.90;;
20179;SDS011;10249;48.900;9.090;2023-04-01T03:17:06;7.20;;;7.00;;
20179;SDS011;10249;48.900;9.090;2023-04-01T03:19:34;7.27;;;7.00;;
20179;SDS011;10249;48.900;9.090;2023-04-01T03:22:01;7.63;;;7.43;;
20179;SDS011;10249;48.900;9.090;2023-04-01T03:24:28;7.50;;;7.20;;
20179;SDS011;10249;48.900;9.090;2023-04-01T03:26:55;7.60;;;7.30;;
20179;SDS011;10249;48.900;9.090;2023-04-01T03:29:23;7.70;;;7.50;;
20179;SDS011;10249;48.900;9.090;2023-04-01T03:31:50;8.10;;;7.80;;
20179;SDS011;10249;48.900;9.090;2023-04-01T03:34:17;8.03;;;7.73;;
20179;SDS011;10249;48.900;9.090;2023-04-01T03:36:45;8.10;;;7.80;;
20179;SDS011;10249;48.900;9.090;2023-04-01T03:39:12;8.10;;;7.80;;
20179;SDS011;10249;48.900;9.090;2023-04-01T03:41:43;8.40;;;8.10;;
20179;SDS011;10249;48.900;9.090;2023-04-01T03:44:10;8.40;;;8.10;;
20179;SDS011;10249;48.900;9.090;2023-04-01T03:46:37;8.27;;;7.97;;
20179;SDS011;10249;48.900;9.090;2023-04-01T03:49:06;8.20;;;7.90;;
20179;SDS011;10249;48.900;9.090;2023-04-01T03:51:36;8.20;;;7.90;;
20179;SDS011;10249;48.900;9.090;2023-04-01T03:54:04;7.67;;;7.37;;
20179;SDS011;10249;48.900;9.090;2023-04-01T03:56:31;7.83;;;7.60;;
20179;SDS011;10249;48.900;9.090;2023-04-01T03:59:01;7.70;;;7.50;;
20179;SDS011;10249;48.900;9.090;2023-04-01T04:01:28;7.80;;;7.60;;
20179;SDS011;10249;48.900;9.090;2023-04-01T04:03:55;7.50;;;7.30;;
20179;SDS011;10249;48.900;9.090;2023-04-01T04:06:23;7.90;;;7.60;;
20179;SDS011;10249;48.900;9.090;2023-04-01T04:08:50;7.57;;;7.27;;
20179;SDS011;10249;48.900;9.090;2023-04-01T04:11:19;7.60;;;7.40;;
20179;SDS011;10249;48.900;9.090;2023-04-01T04:13:46;8.07;;;7.77;;
20179;SDS011;10249;48.900;9.090;2023-04-01T04:16:13;7.80;;;7.50;;
20179;SDS011;10249;48.900;9.090;2023-04-01T04:18:41;7.50;;;7.30;;
20179;SDS011;10249;48.900;9.090;2023-04-01T04:21:10;7.90;;;7.60;;
20179;SDS011;10249;48.900;9.090;2023-04-01T04:23:38;7.70;;;7.50;;
20179;SDS011;10249;48.900;9.090;2023-04-01T04:26:05;8.20;;;7.90;;
20179;SDS011;10249;48.900;9.090;2023-04-01T04:28:34;8.27;;;7.97;;
20179;SDS011;10249;48.900;9.090;2023-04-01T04:31:01;8.30;;;8.00;;
20179;SDS011;10249;48.900;9.090;2023-04-01T04:33:30;8.53;;;8.20;;
20179;SDS011;10249;48.900;9.090;2023-04-01T04:35:57;8.43;;;8.13;;
20179;SDS011;10249;48.900;9.090;2023-04-01T04:38:25;8.67;;;8.37;;
20179;SDS011;10249;48.900;9.090;2023-04-01T04:40:52;8.63;;;8.33;;
20179;SDS011;10249;48.900;9.090;2023-04-01T04:43:19;9.00;;;8.60;;
20179;SDS011;10249;48.900;9.090;2023-04-01T04:45:48;8.40;;;8.10;;
20179;SDS011;10249;48.900;9.090;2023-04-01T04:48:15;8.60;;;8.30;;
20179;SDS011;10249;48.900;9.090;2023-04-01T04:50:43;8.40;;;8.10;;
20179;SDS011;10249;48.900;9.090;2023-04-01T04:53:10;8.37;;;8.07;;
20179;SDS011;10249;48.900;9.090;2023-04-01T04:55:42;8.47;;;8.17;;
20179;SDS011;10249;48.900;9.090;2023-04-01T04:58:09;8.40;;;8.10;;
20179;SDS011;10249;48.900;9.090;2023-04-01T05:00:36;8.37;;;8.07;;
20179;SDS011;10249;48.900;9.090;2023-04-01T05:03:04;8.47;;;8.17;;
20179;SDS011;10249;48.900;9.090;2023-04-01T05:05:32;8.60;;;8.20;;
20179;SDS011;10249;48.900;9.090;2023-04-01T05:07:59;8.30;;;8.00;;
20179;SDS011;10249;48.900;9.090;2023-04-01T05:10:26;8.50;;;8.20;;
20179;SDS011;10249;48.900;9.090;2023-04-01T05:12:53;8.90;;;8.60;;
20179;SDS011;10249;48.900;9.090;2023-04-01T05:15:20;8.40;;;8.10;;
20179;SDS011;10249;48.900;9.090;2023-04-01T05:17:47;8.60;;;8.30;;
20179;SDS011;10249;48.900;9.090;2023-04-01T05:20:16;8.43;;;8.13;;
20179;SDS011;10249;48.900;9.090;2023-04-01T05:22:43;8.50;;;8.20;;
20179;SDS011;10249;48.900;9.090;2023-04-01T05:25:10;8.70;;;8.30;;
20179;SDS011;10249;48.900;9.090;2023-04-01T05:27:37;8.27;;;7.97;;
20179;SDS011;10249;48.900;9.090;2023-04-01T05:30:04;8.30;;;8.00;;
20179;SDS011;10249;48.900;9.090;2023-04-01T05:32:32;8.50;;;8.20;;
20179;SDS011;10249;48.900;9.090;2023-04-01T05:34:59;8.90;;;8.60;;
20179;SDS011;10249;48.900;9.090;2023-04-01T05:37:27;8.70;;;8.40;;
20179;SDS011;10249;48.900;9.090;2023-04-01T05:39:54;8.73;;;8.43;;
20179;SDS011;10249;48.900;9.090;2023-04-01T05:42:23;8.90;;;8.60;;
20179;SDS011;10249;48.900;9.090;2023-04-01T05:44:50;8.70;;;8.40;;
20179;SDS011;10249;48.900;9.090;2023-04-01T05:47:17;8.70;;;8.40;;
20179;SDS011;10249;48.900;9.090;2023-04-01T05:49:44;9.35;;;9.05;;
20179;SDS011;10249;48.900;9.090;2023-04-01T05:52:12;9.00;;;8.70;;
20179;SDS011;10249;48.900;9.090;2023-04-01T05:54:40;9.20;;;8.80;;
20179;SDS011;10249;48.900;9.090;2023-04-01T05:57:07;9.87;;;9.37;;
20179;SDS011;10249;48.900;9.090;2023-04-01T05:59:34;9.30;;;8.90;;
20179;SDS011;10249;48.900;9.090;2023-04-01T06:02:01;8.90;;;8.60;;
20179;SDS011;10249;48.900;9.090;2023-04-01T06:04:31;9.10;;;8.80;;
20179;SDS011;10249;48.900;9.090;2023-04-01T06:06:59;9.00;;;8.60;;
20179;SDS011;10249;48.900;9.090;2023-04-01T06:09:27;9.20;;;8.90;;
20179;SDS011;10249;48.900;9.090;2023-04-01T06:12:08;9.10;;;8.80;;
20179;SDS011;10249;48.900;9.090;2023-04-01T06:14:43;9.27;;;8.87;;
20179;SDS011;10249;48.900;9.090;2023-04-01T06:17:18;9.57;;;9.17;;
20179;SDS011;10249;48.900;9.090;2023-04-01T06:19:47;9.93;;;9.43;;
20179;SDS011;10249;48.900;9.090;2023-04-01T06:22:29;9.50;;;9.20;;
20179;SDS011;10249;48.900;9.090;2023-04-01T06:25:02;9.70;;;9.40;;
20179;SDS011;10249;48.900;9.090;2023-04-01T06:27:39;9.60;;;9.30;;
20179;SDS011;10249;48.900;9.090;2023-04-01T06:30:16;9.50;;;9.20;;
20179;SDS011;10249;48.900;9.090;2023-04-01T06:32:59;9.50;;;9.20;;
20179;SDS011;10249;48.900;9.090;2023-04-01T06:35:42;9.87;;;9.47;;
20179;SDS011;10249;48.900;9.090;2023-04-01T06:41:27;10.10;;;9.60;;
20179;SDS011;10249;48.900;9.090;2023-04-01T06:44:06;9.90;;;9.50;;
20179;SDS011;10249;48.900;9.090;2023-04-01T06:46:38;9.73;;;9.43;;
20179;SDS011;10249;48.900;9.090;2023-04-01T06:49:15;10.50;;;10.00;;
20179;SDS011;10249;48.900;9.090;2023-04-01T06:51:49;9.70;;;9.30;;
20179;SDS011;10249;48.900;9.090;2023-04-01T06:54:20;9.60;;;9.20;;
20179;SDS011;10249;48.900;9.090;2023-04-01T06:56:49;9.13;;;8.83;;
20179;SDS011;10249;48.900;9.090;2023-04-01T06:59:22;9.00;;;8.70;;
20179;SDS011;10249;48.900;9.090;2023-04-01T07:01:52;9.20;;;8.87;;
20179;SDS011;10249;48.900;9.090;2023-04-01T07:04:20;9.03;;;8.67;;
20179;SDS011;10249;48.900;9.090;2023-04-01T07:06:50;9.30;;;8.90;;
20179;SDS011;10249;48.900;9.090;2023-04-01T07:09:19;9.23;;;8.73;;
20179;SDS011;10249;48.900;9.090;2023-04-01T07:11:48;8.80;;;8.50;;
20179;SDS011;10249;48.900;9.090;2023-04-01T07:14:19;8.77;;;8.43;;
20179;SDS011;10249;48.900;9.090;2023-04-01T07:16:48;8.60;;;8.30;;
20179;SDS011;10249;48.900;9.090;2023-04-01T07:19:18;9.20;;;8.70;;
20179;SDS011;10249;48.900;9.090;2023-04-01T07:21:47;9.00;;;8.60;;
20179;SDS011;10249;48.900;9.090;2023-04-01T07:24:16;9.20;;;8.80;;
20179;SDS011;10249;48.900;9.090;2023-04-01T07:26:48;8.40;;;8.10;;
20179;SDS011;10249;48.900;9.090;2023-04-01T07:29:19;8.80;;;8.50;;
20179;SDS011;10249;48.900;9.090;2023-04-01T07:31:52;8.90;;;8.60;;
20179;SDS011;10249;48.900;9.090;2023-04-01T07:34:23;8.60;;;8.30;;
20179;SDS011;10249;48.900;9.090;2023-04-01T07:36:53;8.80;;;8.50;;
20179;SDS011;10249;48.900;9.090;2023-04-01T07:39:28;10.03;;;9.63;;
20179;SDS011;10249;48.900;9.090;2023-04-01T07:41:58;9.13;;;8.83;;
20179;SDS011;10249;48.900;9.090;2023-04-01T07:44:29;8.73;;;8.43;;
20179;SDS011;10249;48.900;9.090;2023-04-01T07:47:08;8.90;;;8.60;;
20179;SDS011;10249;48.900;9.090;2023-04-01T07:49:38;9.27;;;8.90;;
20179;SDS011;10249;48.900;9.090;2023-04-01T07:52:10;9.30;;;8.80;;
20179;SDS011;10249;48.900;9.090;2023-04-01T07:54:42;9.53;;;9.13;;
20179;SDS011;10249;48.900;9.090;2023-04-01T07:57:13;8.87;;;8.57;;
20179;SDS011;10249;48.900;9.090;2023-04-01T07:59:44;8.80;;;8.50;;
20179;SDS011;10249;48.900;9.090;2023-04-01T08:02:21;9.27;;;8.60;;
20179;SDS011;10249;48.900;9.090;2023-04-01T08:04:55;8.30;;;8.00;;
20179;SDS011;10249;48.900;9.090;2023-04-01T08:07:23;8.77;;;8.47;;
20179;SDS011;10249;48.900;9.090;2023-04-01T08:09:53;8.70;;;8.40;;
20179;SDS011;10249;48.900;9.090;2023-04-01T08:12:24;9.23;;;8.73;;
20179;SDS011;10249;48.900;9.090;2023-04-01T08:14:56;9.20;;;8.90;;
20179;SDS011;10249;48.900;9.090;2023-04-01T08:17:28;8.80;;;8.50;;
20179;SDS011;10249;48.900;9.090;2023-04-01T08:20:02;8.50;;;8.20;;
20179;SDS011;10249;48.900;9.090;2023-04-01T08:22:33;8.90;;;8.57;;
20179;SDS011;10249;48.900;9.090;2023-04-01T08:25:02;8.60;;;8.30;;
20179;SDS011;10249;48.900;9.090;2023-04-01T08:27:34;8.80;;;8.50;;
20179;SDS011;10249;48.900;9.090;2023-04-01T08:30:02;8.63;;;8.33;;
20179;SDS011;10249;48.900;9.090;2023-04-01T08:32:32;8.10;;;7.80;;
20179;SDS011;10249;48.900;9.090;2023-04-01T08:35:07;7.60;;;7.20;;
20179;SDS011;10249;48.900;9.090;2023-04-01T08:37:35;7.70;;;7.20;;
20179;SDS011;10249;48.900;9.090;2023-04-01T08:40:09;7.20;;;6.90;;
20179;SDS011;10249;48.900;9.090;2023-04-01T08:42:47;6.30;;;6.10;;
20179;SDS011;10249;48.900;9.090;2023-04-01T08:48:10;6.80;;;6.60;;
20179;SDS011;10249;48.900;9.090;2023-04-01T08:50:42;6.70;;;6.50;;
20179;SDS011;10249;48.900;9.090;2023-04-01T08:53:14;6.57;;;6.27;;
20179;SDS011;10249;48.900;9.090;2023-04-01T08:55:44;6.17;;;5.97;;
20179;SDS011;10249;48.900;9.090;2023-04-01T08:58:37;6.00;;;5.80;;
20179;SDS011;10249;48.900;9.090;2023-04-01T09:01:14;6.40;;;6.20;;
20179;SDS011;10249;48.900;9.090;2023-04-01T09:03:50;6.67;;;6.47;;
20179;SDS011;10249;48.900;9.090;2023-04-01T09:09:05;6.60;;;6.40;;
20179;SDS011;10249;48.900;9.090;2023-04-01T09:11:41;7.00;;;6.70;;
20179;SDS011;10249;48.900;9.090;2023-04-01T09:14:31;6.70;;;6.50;;
20179;SDS011;10249;48.900;9.090;2023-04-01T09:19:51;7.30;;;7.00;;
20179;SDS011;10249;48.900;9.090;2023-04-01T09:22:22;8.13;;;7.83;;
20179;SDS011;10249;48.900;9.090;2023-04-01T09:27:44;9.30;;;8.97;;
20179;SDS011;10249;48.900;9.090;2023-04-01T09:35:42;9.63;;;9.33;;
20179;SDS011;10249;48.900;9.090;2023-04-01T09:38:18;9.10;;;8.80;;
20179;SDS011;10249;48.900;9.090;2023-04-01T09:40:47;9.33;;;9.03;;
20179;SDS011;10249;48.900;9.090;2023-04-01T09:43:18;9.13;;;8.83;;
20179;SDS011;10249;48.900;9.090;2023-04-01T09:45:52;9.83;;;9.53;;
20179;SDS011;10249;48.900;9.090;2023-04-01T09:48:28;9.87;;;9.57;;
20179;SDS011;10249;48.900;9.090;2023-04-01T09:51:01;9.50;;;9.20;;
20179;SDS011;10249;48.900;9.090;2023-04-01T09:53:42;9.60;;;9.30;;
20179;SDS011;10249;48.900;9.090;2023-04-01T09:56:19;9.90;;;9.60;;
20179;SDS011;10249;48.900;9.090;2023-04-01T10:01:55;10.30;;;9.90;;
20179;SDS011;10249;48.900;9.090;2023-04-01T10:04:41;9.90;;;9.60;;
20179;SDS011;10249;48.900;9.090;2023-04-01T10:07:27;10.40;;;10.00;;
20179;SDS011;10249;48.900;9.090;2023-04-01T10:12:49;9.83;;;9.53;;
20179;SDS011;10249;48.900;9.090;2023-04-01T10:15:33;9.60;;;9.30;;
20179;SDS011;10249;48.900;9.090;2023-04-01T10:18:09;10.00;;;9.60;;
20179;SDS011;10249;48.900;9.090;2023-04-01T10:20:54;10.23;;;9.83;;
20179;SDS011;10249;48.900;9.090;2023-04-01T10:23:29;10.60;;;10.20;;
20179;SDS011;10249;48.900;9.090;2023-04-01T10:26:03;10.90;;;10.50;;
20179;SDS011;10249;48.900;9.090;2023-04-01T10:28:36;10.70;;;10.30;;
20179;SDS011;10249;48.900;9.090;2023-04-01T10:31:13;11.33;;;10.93;;
20179;SDS011;10249;48.900;9.090;2023-04-01T10:33:54;11.20;;;10.80;;
20179;SDS011;10249;48.900;9.090;2023-04-01T10:36:41;10.30;;;9.90;;
20179;SDS011;10249;48.900;9.090;2023-04-01T10:42:13;10.57;;;10.17;;
20179;SDS011;10249;48.900;9.090;2023-04-01T10:47:53;10.20;;;9.80;;
20179;SDS011;10249;48.900;9.090;2023-04-01T10:50:25;10.90;;;10.50;;
20179;SDS011;10249;48.900;9.090;2023-04-01T10:53:12;10.60;;;10.20;;
20179;SDS011;10249;48.900;9.090;2023-04-01T10:55:47;10.60;;;10.20;;
20179;SDS011;10249;48.900;9.090;2023-04-01T11:03:50;10.70;;;10.30;;
20179;SDS011;10249;48.900;9.090;2023-04-01T11:06:37;11.33;;;10.93;;
20179;SDS011;10249;48.900;9.090;2023-04-01T11:17:59;11.37;;;10.97;;
20179;SDS011;10249;48.900;9.090;2023-04-01T11:23:29;11.13;;;10.73;;
20179;SDS011;10249;48.900;9.090;2023-04-01T11:26:08;11.07;;;10.67;;
20179;SDS011;10249;48.900;9.090;2023-04-01T11:31:26;11.13;;;10.73;;
20179;SDS011;10249;48.900;9.090;2023-04-01T11:33:57;10.53;;;10.13;;
20179;SDS011;10249;48.900;9.090;2023-04-01T11:36:32;10.77;;;10.37;;
20179;SDS011;10249;48.900;9.090;2023-04-01T11:39:11;10.50;;;10.10;;
20179;SDS011;10249;48.900;9.090;2023-04-01T11:41:40;11.27;;;10.87;;
20179;SDS011;10249;48.900;9.090;2023-04-01T11:44:15;10.97;;;10.57;;
20179;SDS011;10249;48.900;9.090;2023-04-01T11:46:47;11.00;;;10.60;;
20179;SDS011;10249;48.900;9.090;2023-04-01T11:49:21;10.67;;;10.27;;
20179;SDS011;10249;48.900;9.090;2023-04-01T11:51:53;10.70;;;10.30;;
20179;SDS011;10249;48.900;9.090;2023-04-01T11:54:30;11.40;;;11.00;;
20179;SDS011;10249;48.900;9.090;2023-04-01T11:57:07;11.10;;;10.70;;
20179;SDS011;10249;48.900;9.090;2023-04-01T11:59:43;10.40;;;10.10;;
20179;SDS011;10249;48.900;9.090;2023-04-01T12:02:11;10.20;;;9.80;;
20179;SDS011;10249;48.900;9.090;2023-04-01T12:04:51;10.60;;;10.20;;
20179;SDS011;10249;48.900;9.090;2023-04-01T12:07:23;11.07;;;10.67;;
20179;SDS011;10249;48.900;9.090;2023-04-01T12:09:58;11.10;;;10.70;;
20179;SDS011;10249;48.900;9.090;2023-04-01T12:12:31;10.70;;;10.30;;
20179;SDS011;10249;48.900;9.090;2023-04-01T12:15:02;10.60;;;10.20;;
20179;SDS011;10249;48.900;9.090;2023-04-01T12:17:32;11.40;;;11.00;;
20179;SDS011;10249;48.900;9.090;2023-04-01T12:20:04;11.43;;;10.93;;
20179;SDS011;10249;48.900;9.090;2023-04-01T12:22:43;11.10;;;10.70;;
20179;SDS011;10249;48.900;9.090;2023-04-01T12:28:01;10.60;;;10.20;;
20179;SDS011;10249;48.900;9.090;2023-04-01T12:30:36;10.90;;;10.50;;
20179;SDS011;10249;48.900;9.090;2023-04-01T12:33:13;11.20;;;10.80;;
20179;SDS011;10249;48.900;9.090;2023-04-01T12:35:45;11.13;;;10.73;;
20179;SDS011;10249;48.900;9.090;2023-04-01T12:38:17;10.80;;;10.40;;
20179;SDS011;10249;48.900;9.090;2023-04-01T12:40:50;10.93;;;10.53;;
20179;SDS011;10249;48.900;9.090;2023-04-01T12:43:32;10.90;;;10.50;;
20179;SDS011;10249;48.900;9.090;2023-04-01T12:46:03;11.07;;;10.67;;
20179;SDS011;10249;48.900;9.090;2023-04-01T12:48:38;10.80;;;10.40;;
20179;SDS011;10249;48.900;9.090;2023-04-01T12:51:13;10.90;;;10.50;;
20179;SDS011;10249;48.900;9.090;2023-04-01T12:53:50;10.63;;;10.13;;
20179;SDS011;10249;48.900;9.090;2023-04-01T12:56:22;11.00;;;10.60;;
20179;SDS011;10249;48.900;9.090;2023-04-01T12:59:08;11.10;;;10.70;;
20179;SDS011;10249;48.900;9.090;2023-04-01T13:01:49;11.10;;;10.70;;
20179;SDS011;10249;48.900;9.090;2023-04-01T13:04:37;10.73;;;10.33;;
20179;SDS011;10249;48.900;9.090;2023-04-01T13:07:11;10.63;;;10.23;;
20179;SDS011;10249;48.900;9.090;2023-04-01T13:09:40;10.00;;;9.60;;
20179;SDS011;10249;48.900;9.090;2023-04-01T13:15:14;10.30;;;9.90;;
20179;SDS011;10249;48.900;9.090;2023-04-01T13:17:45;9.80;;;9.40;;
20179;SDS011;10249;48.900;9.090;2023-04-01T13:20:16;9.97;;;9.57;;
20179;SDS011;10249;48.900;9.090;2023-04-01T13:22:48;9.60;;;9.30;;
20179;SDS011;10249;48.900;9.090;2023-04-01T13:25:21;9.43;;;9.13;;
20179;SDS011;10249;48.900;9.090;2023-04-01T13:27:53;10.10;;;9.70;;
20179;SDS011;10249;48.900;9.090;2023-04-01T13:30:25;9.70;;;9.40;;
20179;SDS011;10249;48.900;9.090;2023-04-01T13:32:56;9.53;;;9.23;;
20179;SDS011;10249;48.900;9.090;2023-04-01T13:35:30;10.30;;;9.90;;
20179;SDS011;10249;48.900;9.090;2023-04-01T13:38:03;9.53;;;9.23;;
20179;SDS011;10249;48.900;9.090;2023-04-01T13:40:33;10.17;;;9.77;;
20179;SDS011;10249;48.900;9.090;2023-04-01T13:43:05;9.73;;;9.33;;
20179;SDS011;10249;48.900;9.090;2023-04-01T13:45:38;10.30;;;9.90;;
20179;SDS011;10249;48.900;9.090;2023-04-01T13:51:19;9.60;;;9.30;;
20179;SDS011;10249;48.900;9.090;2023-04-01T13:54:05;9.47;;;9.17;;
20179;SDS011;10249;48.900;9.090;2023-04-01T13:56:38;10.10;;;9.70;;
20179;SDS011;10249;48.900;9.090;2023-04-01T13:59:12;9.90;;;9.60;;
20179;SDS011;10249;48.900;9.090;2023-04-01T14:01:47;9.90;;;9.57;;
20179;SDS011;10249;48.900;9.090;2023-04-01T14:04:30;10.23;;;9.83;;
20179;SDS011;10249;48.900;9.090;2023-04-01T14:07:05;10.50;;;10.10;;
20179;SDS011;10249;48.900;9.090;2023-04-01T14:09:39;10.47;;;10.07;;
20179;SDS011;10249;48.900;9.090;2023-04-01T14:12:13;10.60;;;10.20;;
20179;SDS011;10249;48.900;9.090;2023-04-01T14:14:46;10.60;;;10.20;;
20179;SDS011;10249;48.900;9.090;2023-04-01T14:17:36;11.00;;;10.60;;
20179;SDS011;10249;48.900;9.090;2023-04-01T14:20:29;10.77;;;10.37;;
20179;SDS011;10249;48.900;9.090;2023-04-01T14:23:05;10.40;;;10.00;;
20179;SDS011;10249;48.900;9.090;2023-04-01T14:25:48;10.10;;;9.70;;
20179;SDS011;10249;48.900;9.090;2023-04-01T14:28:18;9.67;;;9.30;;
20179;SDS011;10249;48.900;9.090;2023-04-01T14:31:00;9.67;;;9.27;;
20179;SDS011;10249;48.900;9.090;2023-04-01T14:33:37;9.90;;;9.50;;
20179;SDS011;10249;48.900;9.090;2023-04-01T14:36:25;9.80;;;9.40;;
20179;SDS011;10249;48.900;9.090;2023-04-01T14:38:59;9.07;;;8.77;;
20179;SDS011;10249;48.900;9.090;2023-04-01T14:41:30;9.80;;;9.30;;
20179;SDS011;10249;48.900;9.090;2023-04-01T14:44:05;9.00;;;8.70;;
20179;SDS011;10249;48.900;9.090;2023-04-01T14:47:02;8.67;;;8.37;;
20179;SDS011;10249;48.900;9.090;2023-04-01T14:49:34;10.20;;;9.70;;
20179;SDS011;10249;48.900;9.090;2023-04-01T14:52:06;10.80;;;10.30;;
20179;SDS011;10249;48.900;9.090;2023-04-01T14:54:37;10.20;;;9.80;;
20179;SDS011;10249;48.900;9.090;2023-04-01T14:57:09;11.10;;;10.70;;
20179;SDS011;10249;48.900;9.090;2023-04-01T14:59:39;10.87;;;10.37;;
20179;SDS011;10249;48.900;9.090;2023-04-01T15:02:09;11.00;;;10.50;;
20179;SDS011;10249;48.900;9.090;2023-04-01T15:04:46;10.87;;;10.37;;
20179;SDS011;10249;48.900;9.090;2023-04-01T15:07:21;9.70;;;9.40;;
20179;SDS011;10249;48.900;9.090;2023-04-01T15:09:57;10.83;;;10.30;;
20179;SDS011;10249;48.900;9.090;2023-04-01T15:12:29;13.47;;;12.67;;
20179;SDS011;10249;48.900;9.090;2023-04-01T15:15:00;11.97;;;11.30;;
20179;SDS011;10249;48.900;9.090;2023-04-01T15:17:37;12.97;;;12.27;;
20179;SDS011;10249;48.900;9.090;2023-04-01T15:20:25;11.40;;;10.90;;
20179;SDS011;10249;48.900;9.090;2023-04-01T15:23:00;10.40;;;10.00;;
20179;SDS011;10249;48.900;9.090;2023-04-01T15:25:35;10.40;;;10.00;;
20179;SDS011;10249;48.900;9.090;2023-04-01T15:28:06;10.53;;;10.13;;
20179;SDS011;10249;48.900;9.090;2023-04-01T15:30:37;10.93;;;10.53;;
20179;SDS011;10249;48.900;9.090;2023-04-01T15:33:17;10.50;;;10.10;;
20179;SDS011;10249;48.900;9.090;2023-04-01T15:35:50;10.63;;;10.23;;
20179;SDS011;10249;48.900;9.090;2023-04-01T15:38:23;10.50;;;10.10;;
20179;SDS011;10249;48.900;9.090;2023-04-01T15:40:53;10.53;;;10.13;;
20179;SDS011;10249;48.900;9.090;2023-04-01T15:43:25;10.60;;;10.20;;
20179;SDS011;10249;48.900;9.090;2023-04-01T15:45:56;10.93;;;10.53;;
20179;SDS011;10249;48.900;9.090;2023-04-01T15:48:40;10.43;;;10.00;;
20179;SDS011;10249;48.900;9.090;2023-04-01T15:51:13;10.80;;;10.30;;
20179;SDS011;10249;48.900;9.090;2023-04-01T15:53:45;10.83;;;10.43;;
20179;SDS011;10249;48.900;9.090;2023-04-01T15:56:26;10.90;;;10.50;;
20179;SDS011;10249;48.900;9.090;2023-04-01T15:58:58;11.40;;;10.80;;
20179;SDS011;10249;48.900;9.090;2023-04-01T16:01:31;10.90;;;10.50;;
20179;SDS011;10249;48.900;9.090;2023-04-01T16:04:05;11.30;;;10.90;;
20179;SDS011;10249;48.900;9.090;2023-04-01T16:06:41;11.27;;;10.77;;
20179;SDS011;10249;48.900;9.090;2023-04-01T16:09:17;10.97;;;10.57;;